sensor_id;sensor_type;location;lat;lon;timestamp;P1;durP1;ratioP1;P2;durP2;ratioP2
58874;SDS011;44652;49.040;12.126;2023-05-07T06:54:43;10.57;;;6.82;;
58874;SDS011;44652;49.040;12.126;2023-05-07T06:57:14;7.63;;;6.38;;
58874;SDS011;44652;49.040;12.126;2023-05-07T06:59:41;8.25;;;6.28;;
58874;SDS011;44652;49.040;12.126;2023-05-07T07:02:07;7.88;;;6.47;;
58874;SDS011;44652;49.040;12.126;2023-05-07T07:04:34;10.18;;;6.65;;
58874;SDS011;44652;49.040;12.126;2023-05-07T07:07:05;8.10;;;6.32;;
58874;SDS011;44652;49.040;12.126;2023-05-07T07:09:32;8.55;;;6.03;;
58874;SDS011;44652;49.040;12.126;2023-05-07T07:12:00;9.27;;;6.88;;
58874;SDS011;44652;49.040;12.126;2023-05-07T07:14:28;8.73;;;6.50;;
58874;SDS011;44652;49.040;12.126;2023-05-07T07:16:54;8.18;;;6.90;;
58874;SDS011;44652;49.040;12.126;2023-05-07T07:19:22;7.88;;;6.72;;
58874;SDS011;44652;49.040;12.126;2023-05-07T07:21:52;9.20;;;6.63;;
58874;SDS011;44652;49.040;12.126;2023-05-07T07:24:19;9.18;;;7.03;;
58874;SDS011;44652;49.040;12.126;2023-05-07T07:26:51;9.48;;;7.65;;
58874;SDS011;44652;49.040;12.126;2023-05-07T07:29:20;9.77;;;6.90;;
58874;SDS011;44652;49.040;12.126;2023-05-07T07:31:48;8.57;;;7.10;;
58874;SDS011;44652;49.040;12.126;2023-05-07T07:34:14;9.38;;;7.05;;
58874;SDS011;44652;49.040;12.126;2023-05-07T07:36:42;8.98;;;6.95;;
58874;SDS011;44652;49.040;12.126;2023-05-07T07:39:15;11.07;;;6.90;;
58874;SDS011;44652;49.040;12.126;2023-05-07T07:41:43;10.50;;;7.55;;
58874;SDS011;44652;49.040;12.126;2023-05-07T07:44:11;8.70;;;6.90;;
58874;SDS011;44652;49.040;12.126;2023-05-07T07:46:44;7.68;;;6.38;;
58874;SDS011;44652;49.040;12.126;2023-05-07T07:49:11;11.27;;;6.85;;
58874;SDS011;44652;49.040;12.126;2023-05-07T07:51:37;9.93;;;6.22;;
58874;SDS011;44652;49.040;12.126;2023-05-07T07:54:04;6.75;;;5.80;;
58874;SDS011;44652;49.040;12.126;2023-05-07T07:56:33;8.77;;;6.63;;
58874;SDS011;44652;49.040;12.126;2023-05-07T07:59:01;9.63;;;6.88;;
58874;SDS011;44652;49.040;12.126;2023-05-07T08:01:31;10.43;;;6.68;;
58874;SDS011;44652;49.040;12.126;2023-05-07T08:03:59;7.95;;;6.55;;
58874;SDS011;44652;49.040;12.126;2023-05-07T08:06:27;10.73;;;6.25;;
58874;SDS011;44652;49.040;12.126;2023-05-07T08:08:55;7.60;;;6.50;;
58874;SDS011;44652;49.040;12.126;2023-05-07T08:11:22;9.63;;;7.30;;
58874;SDS011;44652;49.040;12.126;2023-05-07T08:13:49;10.88;;;7.65;;
58874;SDS011;44652;49.040;12.126;2023-05-07T08:16:17;9.25;;;6.63;;
58874;SDS011;44652;49.040;12.126;2023-05-07T08:18:44;8.95;;;6.78;;
58874;SDS011;44652;49.040;12.126;2023-05-07T08:21:10;8.23;;;6.95;;
58874;SDS011;44652;49.040;12.126;2023-05-07T08:23:37;10.02;;;7.20;;
58874;SDS011;44652;49.040;12.126;2023-05-07T08:26:05;7.78;;;6.90;;
58874;SDS011;44652;49.040;12.126;2023-05-07T08:28:32;9.93;;;7.28;;
58874;SDS011;44652;49.040;12.126;2023-05-07T08:30:58;11.82;;;7.63;;
58874;SDS011;44652;49.040;12.126;2023-05-07T08:33:31;8.10;;;6.78;;
58874;SDS011;44652;49.040;12.126;2023-05-07T08:35:58;9.73;;;6.75;;
58874;SDS011;44652;49.040;12.126;2023-05-07T08:38:25;8.80;;;6.25;;
58874;SDS011;44652;49.040;12.126;2023-05-07T08:40:52;9.02;;;7.28;;
58874;SDS011;44652;49.040;12.126;2023-05-07T08:43:19;8.32;;;6.82;;
58874;SDS011;44652;49.040;12.126;2023-05-07T08:45:47;14.05;;;7.30;;
58874;SDS011;44652;49.040;12.126;2023-05-07T08:48:17;10.20;;;7.00;;
58874;SDS011;44652;49.040;12.126;2023-05-07T08:50:52;9.52;;;7.38;;
58874;SDS011;44652;49.040;12.126;2023-05-07T08:53:20;10.35;;;6.78;;
58874;SDS011;44652;49.040;12.126;2023-05-07T08:55:48;7.85;;;6.78;;
58874;SDS011;44652;49.040;12.126;2023-05-07T08:58:15;9.38;;;6.70;;
58874;SDS011;44652;49.040;12.126;2023-05-07T09:00:42;9.98;;;7.15;;
58874;SDS011;44652;49.040;12.126;2023-05-07T09:03:09;8.82;;;6.43;;
58874;SDS011;44652;49.040;12.126;2023-05-07T09:05:43;8.43;;;6.25;;
58874;SDS011;44652;49.040;12.126;2023-05-07T09:08:14;7.88;;;6.65;;
58874;SDS011;44652;49.040;12.126;2023-05-07T09:10:41;9.15;;;6.80;;
58874;SDS011;44652;49.040;12.126;2023-05-07T09:13:08;7.75;;;6.63;;
58874;SDS011;44652;49.040;12.126;2023-05-07T09:15:37;8.48;;;6.70;;
58874;SDS011;44652;49.040;12.126;2023-05-07T09:18:03;8.18;;;6.60;;
58874;SDS011;44652;49.040;12.126;2023-05-07T09:20:32;8.45;;;5.78;;
58874;SDS011;44652;49.040;12.126;2023-05-07T09:23:00;9.45;;;6.28;;
58874;SDS011;44652;49.040;12.126;2023-05-07T09:25:29;9.38;;;6.30;;
58874;SDS011;44652;49.040;12.126;2023-05-07T09:27:57;8.38;;;6.07;;
58874;SDS011;44652;49.040;12.126;2023-05-07T09:30:27;11.25;;;5.85;;
58874;SDS011;44652;49.040;12.126;2023-05-07T09:32:54;8.13;;;6.68;;
58874;SDS011;44652;49.040;12.126;2023-05-07T09:35:21;9.35;;;6.38;;
58874;SDS011;44652;49.040;12.126;2023-05-07T09:37:55;9.13;;;6.20;;
58874;SDS011;44652;49.040;12.126;2023-05-07T09:40:22;8.17;;;5.33;;
58874;SDS011;44652;49.040;12.126;2023-05-07T09:42:51;7.35;;;6.13;;
58874;SDS011;44652;49.040;12.126;2023-05-07T09:45:36;8.23;;;5.88;;
58874;SDS011;44652;49.040;12.126;2023-05-07T09:48:03;7.97;;;6.53;;
58874;SDS011;44652;49.040;12.126;2023-05-07T09:50:36;9.68;;;6.18;;
58874;SDS011;44652;49.040;12.126;2023-05-07T09:53:07;7.70;;;5.82;;
58874;SDS011;44652;49.040;12.126;2023-05-07T09:55:36;8.85;;;6.05;;
58874;SDS011;44652;49.040;12.126;2023-05-07T10:00:30;8.57;;;6.28;;
58874;SDS011;44652;49.040;12.126;2023-05-07T10:03:06;8.60;;;6.53;;
58874;SDS011;44652;49.040;12.126;2023-05-07T10:05:41;7.82;;;6.10;;
58874;SDS011;44652;49.040;12.126;2023-05-07T10:08:10;9.45;;;5.75;;
58874;SDS011;44652;49.040;12.126;2023-05-07T10:10:39;8.07;;;6.20;;
58874;SDS011;44652;49.040;12.126;2023-05-07T10:13:10;9.35;;;5.72;;
58874;SDS011;44652;49.040;12.126;2023-05-07T10:15:41;7.78;;;5.55;;
58874;SDS011;44652;49.040;12.126;2023-05-07T10:18:08;7.00;;;5.97;;
58874;SDS011;44652;49.040;12.126;2023-05-07T10:20:37;8.43;;;6.28;;
58874;SDS011;44652;49.040;12.126;2023-05-07T10:23:05;9.35;;;6.03;;
58874;SDS011;44652;49.040;12.126;2023-05-07T10:25:40;6.57;;;5.30;;
58874;SDS011;44652;49.040;12.126;2023-05-07T10:28:15;10.40;;;6.10;;
58874;SDS011;44652;49.040;12.126;2023-05-07T10:30:53;7.07;;;5.22;;
58874;SDS011;44652;49.040;12.126;2023-05-07T10:33:33;6.55;;;4.85;;
58874;SDS011;44652;49.040;12.126;2023-05-07T10:36:01;6.45;;;5.30;;
58874;SDS011;44652;49.040;12.126;2023-05-07T10:38:31;6.90;;;5.00;;
58874;SDS011;44652;49.040;12.126;2023-05-07T10:40:59;7.28;;;5.15;;
58874;SDS011;44652;49.040;12.126;2023-05-07T10:43:38;8.65;;;5.90;;
58874;SDS011;44652;49.040;12.126;2023-05-07T10:46:09;7.00;;;5.23;;
58874;SDS011;44652;49.040;12.126;2023-05-07T10:49:22;8.50;;;6.10;;
58874;SDS011;44652;49.040;12.126;2023-05-07T10:51:23;8.55;;;5.00;;
58874;SDS011;44652;49.040;12.126;2023-05-07T10:56:42;7.65;;;5.75;;
58874;SDS011;44652;49.040;12.126;2023-05-07T11:02:06;9.75;;;5.65;;
58874;SDS011;44652;49.040;12.126;2023-05-07T11:04:40;7.93;;;5.45;;
58874;SDS011;44652;49.040;12.126;2023-05-07T11:07:29;9.00;;;5.47;;
58874;SDS011;44652;49.040;12.126;2023-05-07T11:10:03;6.43;;;5.28;;
58874;SDS011;44652;49.040;12.126;2023-05-07T11:15:33;7.03;;;4.47;;
58874;SDS011;44652;49.040;12.126;2023-05-07T11:18:02;7.65;;;4.95;;
58874;SDS011;44652;49.040;12.126;2023-05-07T11:20:54;6.72;;;4.90;;
58874;SDS011;44652;49.040;12.126;2023-05-07T11:26:25;6.40;;;4.97;;
58874;SDS011;44652;49.040;12.126;2023-05-07T11:28:52;7.22;;;4.97;;
58874;SDS011;44652;49.040;12.126;2023-05-07T11:31:25;6.90;;;5.05;;
58874;SDS011;44652;49.040;12.126;2023-05-07T11:33:53;7.60;;;5.25;;
58874;SDS011;44652;49.040;12.126;2023-05-07T11:36:21;7.47;;;5.28;;
58874;SDS011;44652;49.040;12.126;2023-05-07T11:38:50;6.60;;;5.40;;
58874;SDS011;44652;49.040;12.126;2023-05-07T11:41:17;6.97;;;4.65;;
58874;SDS011;44652;49.040;12.126;2023-05-07T11:43:57;7.30;;;5.13;;
58874;SDS011;44652;49.040;12.126;2023-05-07T11:46:23;5.82;;;4.80;;
58874;SDS011;44652;49.040;12.126;2023-05-07T11:48:50;7.70;;;4.50;;
58874;SDS011;44652;49.040;12.126;2023-05-07T11:51:20;6.13;;;4.13;;
58874;SDS011;44652;49.040;12.126;2023-05-07T11:53:47;5.45;;;3.75;;
58874;SDS011;44652;49.040;12.126;2023-05-07T11:56:15;7.65;;;3.95;;
58874;SDS011;44652;49.040;12.126;2023-05-07T11:58:42;6.95;;;3.63;;
58874;SDS011;44652;49.040;12.126;2023-05-07T12:01:10;4.70;;;3.30;;
58874;SDS011;44652;49.040;12.126;2023-05-07T12:03:37;6.95;;;3.88;;
58874;SDS011;44652;49.040;12.126;2023-05-07T12:06:07;5.13;;;3.45;;
58874;SDS011;44652;49.040;12.126;2023-05-07T12:08:36;4.45;;;3.25;;
58874;SDS011;44652;49.040;12.126;2023-05-07T12:11:03;5.65;;;3.55;;
58874;SDS011;44652;49.040;12.126;2023-05-07T12:13:29;6.22;;;3.50;;
58874;SDS011;44652;49.040;12.126;2023-05-07T12:15:57;6.27;;;3.37;;
58874;SDS011;44652;49.040;12.126;2023-05-07T12:18:24;5.00;;;3.28;;
58874;SDS011;44652;49.040;12.126;2023-05-07T12:20:51;4.88;;;3.30;;
58874;SDS011;44652;49.040;12.126;2023-05-07T12:23:17;4.93;;;3.20;;
58874;SDS011;44652;49.040;12.126;2023-05-07T12:25:44;4.60;;;2.83;;
58874;SDS011;44652;49.040;12.126;2023-05-07T12:28:14;4.32;;;3.00;;
58874;SDS011;44652;49.040;12.126;2023-05-07T12:30:44;4.88;;;3.47;;
58874;SDS011;44652;49.040;12.126;2023-05-07T12:33:11;5.65;;;3.42;;
58874;SDS011;44652;49.040;12.126;2023-05-07T12:35:41;6.50;;;3.25;;
58874;SDS011;44652;49.040;12.126;2023-05-07T12:38:09;7.32;;;3.42;;
58874;SDS011;44652;49.040;12.126;2023-05-07T12:43:02;6.55;;;3.38;;
58874;SDS011;44652;49.040;12.126;2023-05-07T12:45:29;4.53;;;3.10;;
58874;SDS011;44652;49.040;12.126;2023-05-07T12:47:55;5.03;;;3.28;;
58874;SDS011;44652;49.040;12.126;2023-05-07T12:50:22;6.90;;;3.43;;
58874;SDS011;44652;49.040;12.126;2023-05-07T12:52:49;4.85;;;3.10;;
58874;SDS011;44652;49.040;12.126;2023-05-07T12:55:16;4.35;;;2.88;;
58874;SDS011;44652;49.040;12.126;2023-05-07T12:57:43;4.90;;;3.37;;
58874;SDS011;44652;49.040;12.126;2023-05-07T13:00:11;4.85;;;3.15;;
58874;SDS011;44652;49.040;12.126;2023-05-07T13:02:39;5.13;;;2.80;;
58874;SDS011;44652;49.040;12.126;2023-05-07T13:05:07;4.57;;;2.88;;
58874;SDS011;44652;49.040;12.126;2023-05-07T13:07:35;3.47;;;2.50;;
58874;SDS011;44652;49.040;12.126;2023-05-07T13:10:03;5.55;;;2.70;;
58874;SDS011;44652;49.040;12.126;2023-05-07T13:12:30;3.90;;;2.45;;
58874;SDS011;44652;49.040;12.126;2023-05-07T13:14:56;4.22;;;2.92;;
58874;SDS011;44652;49.040;12.126;2023-05-07T13:17:23;3.50;;;2.60;;
58874;SDS011;44652;49.040;12.126;2023-05-07T13:19:49;4.65;;;2.80;;
58874;SDS011;44652;49.040;12.126;2023-05-07T13:22:16;3.70;;;2.60;;
58874;SDS011;44652;49.040;12.126;2023-05-07T13:24:42;3.97;;;2.60;;
58874;SDS011;44652;49.040;12.126;2023-05-07T13:27:10;3.65;;;2.40;;
58874;SDS011;44652;49.040;12.126;2023-05-07T13:29:36;3.88;;;2.60;;
58874;SDS011;44652;49.040;12.126;2023-05-07T13:32:03;4.40;;;2.65;;
58874;SDS011;44652;49.040;12.126;2023-05-07T13:34:29;3.90;;;2.35;;
58874;SDS011;44652;49.040;12.126;2023-05-07T13:36:56;4.93;;;2.63;;
58874;SDS011;44652;49.040;12.126;2023-05-07T13:39:22;3.92;;;2.40;;
58874;SDS011;44652;49.040;12.126;2023-05-07T13:41:49;5.32;;;2.38;;
58874;SDS011;44652;49.040;12.126;2023-05-07T13:44:15;4.07;;;2.55;;
58874;SDS011;44652;49.040;12.126;2023-05-07T13:46:42;3.80;;;2.00;;
58874;SDS011;44652;49.040;12.126;2023-05-07T13:49:09;4.13;;;2.38;;
58874;SDS011;44652;49.040;12.126;2023-05-07T13:51:37;3.55;;;2.35;;
58874;SDS011;44652;49.040;12.126;2023-05-07T13:54:03;3.00;;;1.90;;
58874;SDS011;44652;49.040;12.126;2023-05-07T13:56:30;4.38;;;2.40;;
58874;SDS011;44652;49.040;12.126;2023-05-07T13:58:58;4.05;;;2.45;;
58874;SDS011;44652;49.040;12.126;2023-05-07T14:01:26;4.00;;;2.70;;
58874;SDS011;44652;49.040;12.126;2023-05-07T14:03:53;3.97;;;2.58;;
58874;SDS011;44652;49.040;12.126;2023-05-07T14:06:20;3.03;;;2.08;;
58874;SDS011;44652;49.040;12.126;2023-05-07T14:08:47;5.00;;;2.40;;
58874;SDS011;44652;49.040;12.126;2023-05-07T14:11:14;3.00;;;2.17;;
58874;SDS011;44652;49.040;12.126;2023-05-07T14:13:40;3.95;;;2.40;;
58874;SDS011;44652;49.040;12.126;2023-05-07T14:16:07;5.85;;;2.92;;
58874;SDS011;44652;49.040;12.126;2023-05-07T14:18:34;3.50;;;2.50;;
58874;SDS011;44652;49.040;12.126;2023-05-07T14:21:02;4.03;;;2.33;;
58874;SDS011;44652;49.040;12.126;2023-05-07T14:23:29;5.10;;;2.50;;
58874;SDS011;44652;49.040;12.126;2023-05-07T14:25:56;3.47;;;2.27;;
58874;SDS011;44652;49.040;12.126;2023-05-07T14:28:23;4.50;;;2.55;;
58874;SDS011;44652;49.040;12.126;2023-05-07T14:30:50;4.78;;;2.80;;
58874;SDS011;44652;49.040;12.126;2023-05-07T14:33:16;5.53;;;2.72;;
58874;SDS011;44652;49.040;12.126;2023-05-07T14:35:43;5.05;;;2.70;;
58874;SDS011;44652;49.040;12.126;2023-05-07T14:38:14;6.65;;;3.40;;
58874;SDS011;44652;49.040;12.126;2023-05-07T14:40:41;3.67;;;2.15;;
58874;SDS011;44652;49.040;12.126;2023-05-07T14:43:08;4.95;;;2.60;;
58874;SDS011;44652;49.040;12.126;2023-05-07T14:45:34;4.60;;;2.88;;
58874;SDS011;44652;49.040;12.126;2023-05-07T14:48:01;4.43;;;3.23;;
58874;SDS011;44652;49.040;12.126;2023-05-07T14:50:28;5.95;;;3.30;;
58874;SDS011;44652;49.040;12.126;2023-05-07T14:52:54;7.22;;;3.50;;
58874;SDS011;44652;49.040;12.126;2023-05-07T14:55:21;5.63;;;3.75;;
58874;SDS011;44652;49.040;12.126;2023-05-07T14:57:48;5.60;;;3.70;;
58874;SDS011;44652;49.040;12.126;2023-05-07T15:00:15;5.90;;;3.70;;
58874;SDS011;44652;49.040;12.126;2023-05-07T15:02:41;6.72;;;3.42;;
58874;SDS011;44652;49.040;12.126;2023-05-07T15:05:08;6.50;;;3.63;;
58874;SDS011;44652;49.040;12.126;2023-05-07T15:07:35;5.90;;;3.38;;
58874;SDS011;44652;49.040;12.126;2023-05-07T15:10:01;47.58;;;6.20;;
58874;SDS011;44652;49.040;12.126;2023-05-07T15:12:28;9.20;;;4.20;;
58874;SDS011;44652;49.040;12.126;2023-05-07T15:14:55;6.70;;;3.88;;
58874;SDS011;44652;49.040;12.126;2023-05-07T15:17:21;6.05;;;3.28;;
58874;SDS011;44652;49.040;12.126;2023-05-07T15:19:48;7.18;;;4.00;;
58874;SDS011;44652;49.040;12.126;2023-05-07T15:22:14;4.95;;;3.08;;
58874;SDS011;44652;49.040;12.126;2023-05-07T15:24:41;5.93;;;4.10;;
58874;SDS011;44652;49.040;12.126;2023-05-07T15:27:07;5.85;;;4.35;;
58874;SDS011;44652;49.040;12.126;2023-05-07T15:29:34;6.40;;;4.25;;
58874;SDS011;44652;49.040;12.126;2023-05-07T15:32:01;9.52;;;4.68;;
58874;SDS011;44652;49.040;12.126;2023-05-07T15:34:28;6.18;;;4.53;;
58874;SDS011;44652;49.040;12.126;2023-05-07T15:36:55;7.85;;;4.60;;
58874;SDS011;44652;49.040;12.126;2023-05-07T15:39:23;5.93;;;4.50;;
58874;SDS011;44652;49.040;12.126;2023-05-07T15:41:50;8.83;;;5.13;;
58874;SDS011;44652;49.040;12.126;2023-05-07T15:44:17;13.27;;;5.65;;
58874;SDS011;44652;49.040;12.126;2023-05-07T15:46:43;8.50;;;5.07;;
58874;SDS011;44652;49.040;12.126;2023-05-07T15:49:09;10.65;;;6.97;;
58874;SDS011;44652;49.040;12.126;2023-05-07T15:51:36;14.02;;;12.20;;
58874;SDS011;44652;49.040;12.126;2023-05-07T15:54:03;7.82;;;6.47;;
58874;SDS011;44652;49.040;12.126;2023-05-07T15:56:32;8.98;;;5.95;;
58874;SDS011;44652;49.040;12.126;2023-05-07T15:58:59;7.63;;;5.47;;
58874;SDS011;44652;49.040;12.126;2023-05-07T16:01:26;8.38;;;5.60;;
58874;SDS011;44652;49.040;12.126;2023-05-07T16:03:53;7.35;;;5.35;;
58874;SDS011;44652;49.040;12.126;2023-05-07T16:06:19;7.43;;;5.35;;
58874;SDS011;44652;49.040;12.126;2023-05-07T16:08:46;9.00;;;5.60;;
58874;SDS011;44652;49.040;12.126;2023-05-07T16:11:12;8.50;;;5.22;;
58874;SDS011;44652;49.040;12.126;2023-05-07T16:13:39;6.90;;;5.38;;
58874;SDS011;44652;49.040;12.126;2023-05-07T16:16:05;7.07;;;5.10;;
58874;SDS011;44652;49.040;12.126;2023-05-07T16:18:32;8.15;;;5.07;;
58874;SDS011;44652;49.040;12.126;2023-05-07T16:20:58;8.23;;;5.68;;
58874;SDS011;44652;49.040;12.126;2023-05-07T16:23:26;7.82;;;5.28;;
58874;SDS011;44652;49.040;12.126;2023-05-07T16:25:52;7.15;;;5.53;;
58874;SDS011;44652;49.040;12.126;2023-05-07T16:28:19;7.97;;;5.82;;
58874;SDS011;44652;49.040;12.126;2023-05-07T16:30:46;7.50;;;5.60;;
58874;SDS011;44652;49.040;12.126;2023-05-07T16:33:13;8.93;;;6.03;;
58874;SDS011;44652;49.040;12.126;2023-05-07T16:35:39;7.40;;;5.80;;
58874;SDS011;44652;49.040;12.126;2023-05-07T16:38:06;8.02;;;6.45;;
58874;SDS011;44652;49.040;12.126;2023-05-07T16:40:38;6.80;;;5.20;;
58874;SDS011;44652;49.040;12.126;2023-05-07T16:43:05;7.32;;;5.57;;
58874;SDS011;44652;49.040;12.126;2023-05-07T16:45:32;6.88;;;4.80;;
58874;SDS011;44652;49.040;12.126;2023-05-07T16:47:58;7.60;;;5.13;;
58874;SDS011;44652;49.040;12.126;2023-05-07T16:50:25;5.97;;;4.85;;
58874;SDS011;44652;49.040;12.126;2023-05-07T16:52:51;6.90;;;4.85;;
58874;SDS011;44652;49.040;12.126;2023-05-07T16:55:18;6.95;;;5.10;;
58874;SDS011;44652;49.040;12.126;2023-05-07T16:57:44;7.82;;;5.32;;
58874;SDS011;44652;49.040;12.126;2023-05-07T17:00:11;7.32;;;4.70;;
58874;SDS011;44652;49.040;12.126;2023-05-07T17:02:38;7.10;;;5.00;;
58874;SDS011;44652;49.040;12.126;2023-05-07T17:05:04;7.85;;;5.05;;
58874;SDS011;44652;49.040;12.126;2023-05-07T17:07:33;7.43;;;5.00;;
58874;SDS011;44652;49.040;12.126;2023-05-07T17:10:00;6.72;;;5.03;;
58874;SDS011;44652;49.040;12.126;2023-05-07T17:12:27;8.02;;;5.30;;
58874;SDS011;44652;49.040;12.126;2023-05-07T17:14:54;7.82;;;5.13;;
58874;SDS011;44652;49.040;12.126;2023-05-07T17:17:21;7.78;;;5.38;;
58874;SDS011;44652;49.040;12.126;2023-05-07T17:19:47;8.32;;;5.97;;
58874;SDS011;44652;49.040;12.126;2023-05-07T17:22:14;10.18;;;5.82;;
58874;SDS011;44652;49.040;12.126;2023-05-07T17:24:41;8.02;;;5.63;;
58874;SDS011;44652;49.040;12.126;2023-05-07T17:27:07;8.35;;;5.32;;
58874;SDS011;44652;49.040;12.126;2023-05-07T17:29:34;8.57;;;5.53;;
58874;SDS011;44652;49.040;12.126;2023-05-07T17:32:00;7.82;;;5.65;;
58874;SDS011;44652;49.040;12.126;2023-05-07T17:34:27;8.13;;;6.15;;
58874;SDS011;44652;49.040;12.126;2023-05-07T17:36:54;8.73;;;6.15;;
58874;SDS011;44652;49.040;12.126;2023-05-07T17:39:21;7.40;;;5.45;;
58874;SDS011;44652;49.040;12.126;2023-05-07T17:41:47;9.20;;;6.13;;
58874;SDS011;44652;49.040;12.126;2023-05-07T17:44:14;7.68;;;6.13;;
58874;SDS011;44652;49.040;12.126;2023-05-07T17:46:40;9.82;;;6.63;;
58874;SDS011;44652;49.040;12.126;2023-05-07T17:49:07;7.82;;;6.05;;
58874;SDS011;44652;49.040;12.126;2023-05-07T17:51:34;7.45;;;5.75;;
58874;SDS011;44652;49.040;12.126;2023-05-07T17:54:20;9.02;;;7.10;;
58874;SDS011;44652;49.040;12.126;2023-05-07T17:56:46;9.50;;;5.80;;
58874;SDS011;44652;49.040;12.126;2023-05-07T17:59:13;9.52;;;6.53;;
58874;SDS011;44652;49.040;12.126;2023-05-07T18:01:40;9.00;;;7.00;;
58874;SDS011;44652;49.040;12.126;2023-05-07T18:04:07;9.15;;;6.95;;
58874;SDS011;44652;49.040;12.126;2023-05-07T18:06:34;9.90;;;6.53;;
58874;SDS011;44652;49.040;12.126;2023-05-07T18:09:01;8.95;;;6.63;;
58874;SDS011;44652;49.040;12.126;2023-05-07T18:11:28;9.18;;;6.90;;
58874;SDS011;44652;49.040;12.126;2023-05-07T18:13:54;8.43;;;7.25;;
58874;SDS011;44652;49.040;12.126;2023-05-07T18:16:21;10.48;;;7.20;;
58874;SDS011;44652;49.040;12.126;2023-05-07T18:18:48;8.68;;;7.07;;
58874;SDS011;44652;49.040;12.126;2023-05-07T18:21:14;8.40;;;6.97;;
58874;SDS011;44652;49.040;12.126;2023-05-07T18:23:44;9.15;;;6.95;;
58874;SDS011;44652;49.040;12.126;2023-05-07T18:26:11;7.78;;;6.50;;
58874;SDS011;44652;49.040;12.126;2023-05-07T18:28:37;9.18;;;7.50;;
58874;SDS011;44652;49.040;12.126;2023-05-07T18:31:04;10.65;;;7.28;;
58874;SDS011;44652;49.040;12.126;2023-05-07T18:33:31;9.13;;;7.63;;
58874;SDS011;44652;49.040;12.126;2023-05-07T18:35:57;9.77;;;7.45;;
58874;SDS011;44652;49.040;12.126;2023-05-07T18:38:24;9.93;;;6.93;;
58874;SDS011;44652;49.040;12.126;2023-05-07T18:40:50;12.77;;;7.85;;
58874;SDS011;44652;49.040;12.126;2023-05-07T18:43:20;8.75;;;7.72;;
58874;SDS011;44652;49.040;12.126;2023-05-07T18:45:47;11.60;;;8.23;;
58874;SDS011;44652;49.040;12.126;2023-05-07T18:48:13;10.90;;;7.72;;
58874;SDS011;44652;49.040;12.126;2023-05-07T18:50:42;8.85;;;7.32;;
58874;SDS011;44652;49.040;12.126;2023-05-07T18:53:09;8.70;;;7.20;;
58874;SDS011;44652;49.040;12.126;2023-05-07T18:55:36;8.93;;;7.10;;
58874;SDS011;44652;49.040;12.126;2023-05-07T18:58:03;9.50;;;7.90;;
58874;SDS011;44652;49.040;12.126;2023-05-07T19:00:29;11.27;;;8.02;;
58874;SDS011;44652;49.040;12.126;2023-05-07T19:02:56;12.45;;;8.45;;
58874;SDS011;44652;49.040;12.126;2023-05-07T19:05:22;11.45;;;8.30;;
58874;SDS011;44652;49.040;12.126;2023-05-07T19:07:50;13.07;;;7.75;;
58874;SDS011;44652;49.040;12.126;2023-05-07T19:10:16;8.73;;;7.35;;
58874;SDS011;44652;49.040;12.126;2023-05-07T19:12:44;11.25;;;8.00;;
58874;SDS011;44652;49.040;12.126;2023-05-07T19:15:11;9.18;;;7.18;;
58874;SDS011;44652;49.040;12.126;2023-05-07T19:17:37;8.75;;;7.22;;
58874;SDS011;44652;49.040;12.126;2023-05-07T19:20:04;8.45;;;6.97;;
58874;SDS011;44652;49.040;12.126;2023-05-07T19:22:41;9.25;;;7.30;;
58874;SDS011;44652;49.040;12.126;2023-05-07T19:25:07;8.98;;;7.32;;
58874;SDS011;44652;49.040;12.126;2023-05-07T19:27:35;8.98;;;6.78;;
58874;SDS011;44652;49.040;12.126;2023-05-07T19:30:02;8.63;;;7.05;;
58874;SDS011;44652;49.040;12.126;2023-05-07T19:32:29;8.10;;;6.35;;
58874;SDS011;44652;49.040;12.126;2023-05-07T19:34:55;9.05;;;7.20;;
58874;SDS011;44652;49.040;12.126;2023-05-07T19:37:22;8.70;;;6.85;;
58874;SDS011;44652;49.040;12.126;2023-05-07T19:39:51;8.48;;;6.40;;
58874;SDS011;44652;49.040;12.126;2023-05-07T19:42:17;8.82;;;6.40;;
58874;SDS011;44652;49.040;12.126;2023-05-07T19:44:44;10.77;;;6.50;;
58874;SDS011;44652;49.040;12.126;2023-05-07T19:47:10;9.30;;;6.65;;
58874;SDS011;44652;49.040;12.126;2023-05-07T19:49:37;9.60;;;6.78;;
58874;SDS011;44652;49.040;12.126;2023-05-07T19:52:04;9.95;;;6.63;;
58874;SDS011;44652;49.040;12.126;2023-05-07T19:54:31;9.43;;;5.97;;
58874;SDS011;44652;49.040;12.126;2023-05-07T19:56:58;9.32;;;6.30;;
58874;SDS011;44652;49.040;12.126;2023-05-07T19:59:25;7.00;;;5.53;;
58874;SDS011;44652;49.040;12.126;2023-05-07T20:01:52;7.38;;;5.10;;
58874;SDS011;44652;49.040;12.126;2023-05-07T20:04:19;8.27;;;6.05;;
58874;SDS011;44652;49.040;12.126;2023-05-07T20:06:47;7.95;;;6.05;;
58874;SDS011;44652;49.040;12.126;2023-05-07T20:09:17;7.85;;;5.35;;
58874;SDS011;44652;49.040;12.126;2023-05-07T20:11:44;7.70;;;5.80;;
58874;SDS011;44652;49.040;12.126;2023-05-07T20:14:10;7.28;;;5.43;;
58874;SDS011;44652;49.040;12.126;2023-05-07T20:16:38;9.00;;;5.32;;
58874;SDS011;44652;49.040;12.126;2023-05-07T20:19:06;9.00;;;5.35;;
58874;SDS011;44652;49.040;12.126;2023-05-07T20:21:33;7.95;;;5.82;;
58874;SDS011;44652;49.040;12.126;2023-05-07T20:24:00;9.82;;;5.63;;
58874;SDS011;44652;49.040;12.126;2023-05-07T20:26:26;7.55;;;5.70;;
58874;SDS011;44652;49.040;12.126;2023-05-07T20:28:53;7.10;;;4.88;;
58874;SDS011;44652;49.040;12.126;2023-05-07T20:31:22;7.25;;;5.35;;
58874;SDS011;44652;49.040;12.126;2023-05-07T20:33:49;7.00;;;5.30;;
58874;SDS011;44652;49.040;12.126;2023-05-07T20:36:16;6.70;;;5.10;;
58874;SDS011;44652;49.040;12.126;2023-05-07T20:38:42;7.20;;;5.70;;
58874;SDS011;44652;49.040;12.126;2023-05-07T20:41:10;7.13;;;5.22;;
58874;SDS011;44652;49.040;12.126;2023-05-07T20:43:38;8.32;;;4.93;;
